Time;durP1;ratioP1;P1;durP2;ratioP2;P2;SDS_P1;SDS_P2;PMS_P1;PMS_P2;Temp;Humidity;BMP_temperature;BMP_pressure;BME280_temperature;BME280_humidity;BME280_pressure;Samples;Min_cycle;Max_cycle;Signal;HPM_P1;HPM_P2
2022/05/21 06:03:54;;;;;;;;;6.00;4.00;;;;;17.43;100.00;100865.19;6378257;22;46433;-89
2022/05/21 06:06:23;;;;;;;;;3.33;3.33;;;;;17.47;100.00;100869.69;6382314;22;45417;-91
2022/05/21 06:08:50;;;;;;;;;4.67;4.67;;;;;17.50;100.00;100868.84;6412732;22;45252;-92
2022/05/21 06:11:16;;;;;;;;;3.33;3.33;;;;;17.58;100.00;100863.69;6377381;22;45253;-91
2022/05/21 06:13:43;;;;;;;;;1.00;1.00;;;;;17.74;100.00;100870.16;6410529;22;45130;-90
2022/05/21 06:16:09;;;;;;;;;4.00;3.00;;;;;17.89;100.00;100877.50;6377931;22;45475;-91
2022/05/21 06:18:34;;;;;;;;;2.00;1.00;;;;;18.06;100.00;100872.50;6404314;22;46235;-91
2022/05/21 06:21:01;;;;;;;;;2.33;2.33;;;;;18.12;100.00;100878.75;6402027;22;45354;-92
2022/05/21 06:23:27;;;;;;;;;2.33;2.33;;;;;18.08;100.00;100877.81;6402078;22;45339;-93
2022/05/21 06:25:52;;;;;;;;;2.33;2.00;;;;;18.08;100.00;100885.78;6403121;22;45610;-93
2022/05/21 06:28:18;;;;;;;;;1.67;1.67;;;;;18.14;100.00;100877.91;6402630;22;55211;-93
2022/05/21 06:30:45;;;;;;;;;3.67;2.33;;;;;18.25;100.00;100883.44;6373604;22;45640;-93
2022/05/21 06:33:23;;;;;;;;;3.33;3.33;;;;;18.34;100.00;100881.78;6403503;22;45278;-94
2022/05/21 06:36:03;;;;;;;;;1.00;1.00;;;;;18.38;100.00;100875.63;6404281;22;45362;-92
2022/05/21 06:38:29;;;;;;;;;3.00;2.00;;;;;18.45;100.00;100877.50;6407213;22;45299;-92
2022/05/21 06:40:54;;;;;;;;;2.00;1.67;;;;;18.51;100.00;100874.06;6409729;22;45303;-84
2022/05/21 06:43:21;;;;;;;;;2.00;2.00;;;;;18.56;100.00;100877.66;6421562;22;51224;-88
2022/05/21 06:45:46;;;;;;;;;6.67;2.00;;;;;18.65;100.00;100884.91;6425870;22;44680;-88
2022/05/21 06:48:11;;;;;;;;;3.00;2.00;;;;;18.82;100.00;100881.56;6375762;22;54641;-90
2022/05/21 06:50:39;;;;;;;;;2.00;2.00;;;;;18.98;100.00;100894.19;6404941;22;45196;-91
2022/05/21 06:53:05;;;;;;;;;3.33;2.00;;;;;19.22;100.00;100877.66;6373377;22;45473;-93
2022/05/21 06:55:30;;;;;;;;;1.00;1.00;;;;;19.38;100.00;100878.72;6371579;22;45245;-93
2022/05/21 06:57:55;;;;;;;;;3.67;2.00;;;;;19.51;100.00;100869.06;6400891;22;47196;-93
2022/05/21 07:00:21;;;;;;;;;3.00;1.67;;;;;19.56;100.00;100872.66;6370738;22;45267;-93
2022/05/21 07:02:49;;;;;;;;;2.00;1.00;;;;;19.60;100.00;100882.50;6370929;22;45811;-93
2022/05/21 07:07:59;;;;;;;;;1.00;1.00;;;;;19.61;100.00;100876.28;6399714;22;45326;-92
2022/05/21 07:10:27;;;;;;;;;4.00;1.00;;;;;19.66;100.00;100881.66;6370367;22;45337;-94
2022/05/21 07:12:53;;;;;;;;;1.67;1.67;;;;;19.73;100.00;100890.59;6370721;22;45297;-88
2022/05/21 07:15:19;;;;;;;;;1.67;1.67;;;;;19.77;100.00;100887.06;6374801;22;45470;-94
2022/05/21 07:17:49;;;;;;;;;1.00;1.00;;;;;19.84;100.00;100886.25;6352844;22;48277;-95
2022/05/21 07:20:31;;;;;;;;;2.00;2.00;;;;;19.81;100.00;100874.69;6388667;22;45240;-96
2022/05/21 07:23:00;;;;;;;;;1.00;1.00;;;;;19.98;100.00;100889.03;6380315;22;45596;-95
2022/05/21 07:25:31;;;;;;;;;1.33;1.00;;;;;20.06;100.00;100883.78;6380858;22;45477;-96
2022/05/21 07:27:57;;;;;;;;;1.67;1.00;;;;;20.20;100.00;100883.03;6379789;22;47202;-96
2022/05/21 07:30:22;;;;;;;;;3.00;1.67;;;;;20.21;100.00;100874.13;6383692;22;44854;-96
2022/05/21 07:32:50;;;;;;;;;2.33;2.00;;;;;20.29;100.00;100885.75;6383334;22;45302;-96
2022/05/21 07:35:19;;;;;;;;;1.67;1.67;;;;;20.45;100.00;100898.28;6380406;22;45472;-96
2022/05/21 07:37:46;;;;;;;;;2.00;1.00;;;;;20.43;100.00;100883.19;6382587;22;47551;-94
2022/05/21 07:40:13;;;;;;;;;0.33;0.33;;;;;20.58;100.00;100891.25;6349207;22;45305;-94
2022/05/21 07:42:38;;;;;;;;;0.67;0.33;;;;;20.65;100.00;100891.31;6373328;22;45315;-94
2022/05/21 07:45:09;;;;;;;;;1.00;1.00;;;;;20.68;100.00;100881.53;6346897;22;45284;-93
2022/05/21 07:47:35;;;;;;;;;0.00;0.00;;;;;20.74;100.00;100882.47;6380271;22;46965;-94
2022/05/21 07:50:00;;;;;;;;;1.00;1.00;;;;;20.78;100.00;100880.69;6373648;22;45240;-95
2022/05/21 07:52:46;;;;;;;;;1.00;1.00;;;;;20.90;100.00;100892.34;6383263;22;45173;-96
2022/05/21 07:55:13;;;;;;;;;3.00;1.33;;;;;20.83;100.00;100888.72;6365802;22;45270;-94
2022/05/21 07:57:39;;;;;;;;;1.33;0.33;;;;;20.85;100.00;100901.19;6372741;22;47300;-94
2022/05/21 08:00:06;;;;;;;;;0.00;0.00;;;;;20.84;100.00;100902.09;6369507;22;45647;-94
2022/05/21 08:02:42;;;;;;;;;1.00;0.00;;;;;20.87;100.00;100903.88;6374424;22;45186;-96
2022/05/21 08:05:10;;;;;;;;;0.33;0.00;;;;;20.99;100.00;100898.59;6387459;22;45358;-96
2022/05/21 08:07:41;;;;;;;;;0.33;0.33;;;;;21.10;100.00;100913.78;6416272;22;46512;-96
2022/05/21 08:10:07;;;;;;;;;3.33;1.00;;;;;21.12;100.00;100901.34;6413551;22;45242;-96
2022/05/21 08:12:32;;;;;;;;;1.00;1.00;;;;;21.18;100.00;100885.34;6385191;22;45230;-96
2022/05/21 08:14:58;;;;;;;;;1.00;1.00;;;;;21.23;100.00;100882.69;6391480;22;44920;-96
2022/05/21 08:17:23;;;;;;;;;1.00;0.00;;;;;21.34;100.00;100893.38;6383257;22;47097;-95
2022/05/21 08:19:50;;;;;;;;;1.33;1.33;;;;;21.43;100.00;100893.44;6376617;22;45812;-95
2022/05/21 08:27:45;;;;;;;;;3.33;2.67;;;;;21.74;100.00;100887.25;6379536;22;45223;-95
2022/05/21 08:30:10;;;;;;;;;0.00;0.00;;;;;21.83;100.00;100902.38;6377084;22;45951;-95
2022/05/21 08:32:36;;;;;;;;;1.00;1.00;;;;;21.86;100.00;100896.16;6378451;22;45380;-95
2022/05/21 08:35:03;;;;;;;;;1.00;0.67;;;;;21.88;100.00;100903.31;6376073;22;45376;-95
2022/05/21 08:37:33;;;;;;;;;1.00;1.00;;;;;21.94;100.00;100915.78;6379223;22;47198;-96
2022/05/21 08:39:58;;;;;;;;;1.00;1.00;;;;;21.97;100.00;100917.56;6379947;22;45191;-95
2022/05/21 08:42:37;;;;;;;;;1.00;1.00;;;;;22.08;100.00;100922.91;6374592;22;45570;-94
2022/05/21 08:45:20;;;;;;;;;1.67;1.67;;;;;22.00;100.00;100880.16;6381640;22;45382;-94
2022/05/21 08:47:57;;;;;;;;;0.67;0.67;;;;;22.11;100.00;100885.50;6405090;22;47174;-95
2022/05/21 08:50:24;;;;;;;;;1.00;1.00;;;;;22.32;100.00;100889.03;6382087;22;45905;-94
2022/05/21 08:53:21;;;;;;;;;1.00;1.00;;;;;22.48;100.00;100918.41;6377372;22;45355;-95
2022/05/21 08:55:51;;;;;;;;;1.00;1.00;;;;;22.52;100.00;100910.38;6375774;22;45138;-94
2022/05/21 08:58:26;;;;;;;;;0.67;0.00;;;;;22.49;100.00;100897.03;6385751;22;47286;-94
2022/05/21 09:00:55;;;;;;;;;0.00;0.00;;;;;22.60;100.00;100906.81;6385376;22;46212;-93
2022/05/21 09:03:32;;;;;;;;;0.33;0.33;;;;;22.57;100.00;100893.44;6391280;22;45442;-95
2022/05/21 09:06:46;;;;;;;;;;;;;;;;;;;;;
2022/05/21 09:09:43;;;;;;;;;2.33;2.33;;;;;22.81;100.00;100923.72;6417523;22;73744;-92
2022/05/21 09:12:15;;;;;;;;;0.00;0.00;;;;;22.90;100.00;100961.19;6378438;22;45168;-93
2022/05/21 09:14:43;;;;;;;;;0.00;0.00;;;;;22.99;100.00;100912.06;6377099;22;45322;-91
2022/05/21 09:17:17;;;;;;;;;2.67;1.00;;;;;23.12;100.00;100899.50;6375891;22;45466;-95
2022/05/21 09:19:52;;;;;;;;;1.33;1.00;;;;;23.29;100.00;100887.84;6378474;22;47375;-95
2022/05/21 09:22:20;;;;;;;;;0.00;0.00;;;;;23.47;100.00;100891.31;6377676;22;45670;-95
2022/05/21 09:24:51;;;;;;;;;1.00;1.00;;;;;23.58;100.00;100892.13;6378140;22;45181;-95
2022/05/21 09:27:33;;;;;;;;;3.67;1.00;;;;;23.74;100.00;100873.28;6375718;22;45498;-95
2022/05/21 09:30:26;;;;;;;;;2.00;2.00;;;;;23.91;100.00;100873.16;6384006;22;47093;-96
2022/05/21 09:32:56;;;;;;;;;2.00;2.00;;;;;23.98;100.00;100901.69;6414564;22;45311;-96
2022/05/21 09:36:01;;;;;;;;;5.33;4.00;;;;;23.89;100.00;100896.38;6388232;22;45990;-95
2022/05/21 09:41:16;;;;;;;;;2.00;2.00;;;;;24.38;100.00;100890.63;6382152;22;45313;-96
2022/05/21 09:46:36;;;;;;;;;1.33;1.33;;;;;25.34;100.00;100876.94;6381008;22;45307;-90
2022/05/21 09:49:13;;;;;;;;;2.00;1.67;;;;;26.88;100.00;100848.25;6370450;22;45293;-91
2022/05/21 09:51:41;;;;;;;;;1.00;1.00;;;;;28.89;100.00;100835.13;6375120;22;46305;-92
2022/05/21 09:54:28;;;;;;;;;1.00;1.00;;;;;31.13;100.00;100992.84;6399817;22;45583;-94
2022/05/21 09:56:57;;;;;;;;;2.00;2.00;;;;;32.87;100.00;100964.94;6371059;22;45252;-94
2022/05/21 09:59:25;;;;;;;;;1.67;1.67;;;;;34.72;100.00;101104.97;6377702;22;45302;-91
2022/05/21 10:01:55;;;;;;;;;0.67;0.67;;;;;36.38;100.00;101607.97;6370710;22;47181;-93
2022/05/21 10:04:23;;;;;;;;;2.00;2.00;;;;;38.09;100.00;101629.84;6344857;22;45214;-94
2022/05/21 10:07:00;;;;;;;;;1.00;1.00;;;;;39.81;100.00;101677.16;6371760;22;45519;-94
2022/05/21 10:12:32;;;;;;;;;2.00;1.33;;;;;42.73;81.75;101892.06;6373838;22;45305;-93
2022/05/21 10:15:05;;;;;;;;;3.00;2.00;;;;;43.68;78.52;101898.78;6374835;22;45169;-96
2022/05/21 10:17:39;;;;;;;;;3.00;0.67;;;;;44.47;75.61;101905.38;6371115;22;45227;-95
2022/05/21 10:20:36;;;;;;;;;2.00;1.33;;;;;43.93;71.82;101922.59;6375744;22;45292;-96
2022/05/21 10:33:40;;;;;;;;;2.00;0.00;;;;;48.05;62.63;101962.50;6381658;22;46933;-96
2022/05/21 10:36:35;;;;;;;;;0.00;0.00;;;;;48.44;58.50;101968.97;6379527;22;45201;-91
2022/05/21 10:39:38;;;;;;;;;0.00;0.00;;;;;48.97;55.63;101966.47;6373708;22;44750;-90
2022/05/21 10:42:23;;;;;;;;;2.00;1.33;;;;;49.42;54.72;101968.47;6367298;22;45268;-89
2022/05/21 10:45:22;;;;;;;;;2.00;0.00;;;;;49.72;53.13;101971.84;6371256;22;45379;-89
2022/05/21 10:48:11;;;;;;;;;3.00;2.00;;;;;49.58;51.36;101962.16;6371433;22;45644;-96
2022/05/21 10:50:58;;;;;;;;;1.33;1.00;;;;;49.73;48.77;101978.31;6373848;22;45439;-95
2022/05/21 10:56:06;;;;;;;;;0.67;0.67;;;;;50.81;51.19;101965.97;6334848;22;46177;-93
2022/05/21 10:59:08;;;;;;;;;0.00;0.00;;;;;51.58;51.54;101969.53;6345067;22;45307;-96
2022/05/21 11:01:35;;;;;;;;;1.33;1.33;;;;;52.17;51.92;101958.19;6347407;22;45340;-95
2022/05/21 11:04:15;;;;;;;;;0.00;0.00;;;;;52.78;50.80;101953.03;6343400;22;45394;-96
2022/05/21 11:07:01;;;;;;;;;0.67;0.67;;;;;53.27;49.37;101951.81;6343714;22;47589;-92
2022/05/21 11:09:29;;;;;;;;;1.00;1.00;;;;;53.81;48.87;101956.56;6369752;22;45360;-93
2022/05/21 11:12:09;;;;;;;;;2.00;1.00;;;;;54.15;48.18;101949.47;6341260;22;45319;-94
2022/05/21 11:14:37;;;;;;;;;2.67;2.00;;;;;54.45;46.48;101948.56;6344523;22;45562;-93
2022/05/21 11:17:32;;;;;;;;;0.00;0.00;;;;;53.20;44.60;101949.94;6368462;22;46940;-95
2022/05/21 11:20:02;;;;;;;;;1.00;0.00;;;;;51.26;44.75;101938.63;6347696;22;46007;-94
2022/05/21 11:22:58;;;;;;;;;0.00;0.00;;;;;49.94;46.23;101924.94;6349087;22;45450;-95
2022/05/21 11:25:32;;;;;;;;;0.33;0.33;;;;;48.77;45.20;101923.94;6348680;22;45560;-94
2022/05/21 11:28:14;;;;;;;;;1.00;1.00;;;;;48.88;46.91;101925.63;6376623;22;45852;-94
2022/05/21 11:30:40;;;;;;;;;1.00;1.00;;;;;49.95;45.84;101923.88;6371655;22;45345;-94
2022/05/21 11:38:50;;;;;;;;;1.00;1.00;;;;;52.83;46.19;101914.13;6373054;22;45821;-93
2022/05/21 11:41:29;;;;;;;;;2.00;2.00;;;;;53.68;44.74;101920.75;6344047;22;45904;-94
2022/05/21 11:47:07;;;;;;;;;2.33;1.00;;;;;55.10;43.81;101923.53;6369310;22;45251;-95
2022/05/21 11:49:41;;;;;;;;;3.00;2.00;;;;;55.59;43.33;101909.63;6373671;22;46093;-95
2022/05/21 11:52:25;;;;;;;;;1.00;1.00;;;;;56.21;42.67;101914.53;6341195;22;45316;-95
2022/05/21 11:54:50;;;;;;;;;1.00;1.00;;;;;56.76;42.22;101911.84;6370242;22;45318;-94
2022/05/21 11:57:36;;;;;;;;;0.00;0.00;;;;;57.29;41.12;101901.69;6371027;22;45369;-95
2022/05/21 12:00:05;;;;;;;;;0.00;0.00;;;;;57.66;40.28;101897.47;6364568;22;48266;-95
2022/05/21 12:02:34;;;;;;;;;0.00;0.00;;;;;58.05;40.41;101898.41;6345578;22;45196;-95
2022/05/21 12:05:11;;;;;;;;;4.00;2.00;;;;;58.34;37.80;101895.22;6375799;22;45464;-94
2022/05/21 12:07:48;;;;;;;;;1.00;0.00;;;;;58.80;38.85;101899.91;6375964;22;45322;-94
2022/05/21 12:10:24;;;;;;;;;0.00;0.00;;;;;59.26;37.87;101886.47;6346119;22;47200;-94
2022/05/21 12:13:03;;;;;;;;;1.00;0.00;;;;;59.70;36.46;101894.00;6374524;22;44938;-96
2022/05/21 12:15:41;;;;;;;;;0.00;0.00;;;;;60.03;36.62;101889.03;6341835;22;45869;-94
2022/05/21 12:18:35;;;;;;;;;2.00;2.00;;;;;60.36;35.42;101892.50;6340105;22;45397;-95
2022/05/21 12:21:02;;;;;;;;;3.00;2.33;;;;;60.56;34.29;101882.81;6372780;22;45483;-94
2022/05/21 12:23:31;;;;;;;;;1.00;1.00;;;;;60.83;33.76;101883.50;6368878;22;45369;-94
2022/05/21 12:25:57;;;;;;;;;0.00;0.00;;;;;60.97;33.51;101885.00;6369963;22;45221;-94
2022/05/21 12:28:25;;;;;;;;;2.00;0.00;;;;;61.07;33.55;101873.00;6372929;22;45260;-95
2022/05/21 12:31:04;;;;;;;;;1.67;1.00;;;;;61.36;33.86;101875.09;6368791;22;47408;-94
2022/05/21 12:34:00;;;;;;;;;1.00;1.00;;;;;61.75;34.26;101871.69;6340907;22;45337;-93
2022/05/21 12:36:43;;;;;;;;;0.00;0.00;;;;;62.07;34.08;101864.59;6368327;22;45437;-94
2022/05/21 12:39:13;;;;;;;;;0.33;0.33;;;;;62.46;33.59;101854.53;6368181;22;45547;-95
2022/05/21 12:41:43;;;;;;;;;0.67;0.00;;;;;62.87;33.75;101850.63;6368790;22;47427;-94
2022/05/21 12:44:11;;;;;;;;;0.00;0.00;;;;;63.37;33.19;101847.06;6371564;22;45470;-95
2022/05/21 12:46:41;;;;;;;;;2.00;1.00;;;;;63.73;32.98;101849.50;6344537;22;45260;-95
2022/05/21 12:49:11;;;;;;;;;1.00;1.00;;;;;64.12;32.31;101855.03;6341805;22;45303;-95
2022/05/21 12:51:41;;;;;;;;;0.00;0.00;;;;;64.08;31.19;101852.97;6347615;22;47260;-94
2022/05/21 12:54:24;;;;;;;;;0.67;0.00;;;;;63.42;29.85;101849.97;6376573;22;45398;-96
2022/05/21 12:56:51;;;;;;;;;0.00;0.00;;;;;63.52;30.27;101832.16;6360051;22;45481;-94
2022/05/21 12:59:20;;;;;;;;;0.00;0.00;;;;;61.95;30.26;101833.44;6367481;22;44872;-95
2022/05/21 13:02:03;;;;;;;;;0.00;0.00;;;;;59.91;31.27;101832.34;6395782;22;45554;-94
2022/05/21 13:04:33;;;;;;;;;0.00;0.00;;;;;61.00;32.42;101832.59;6362800;22;45498;-92
2022/05/21 13:07:02;;;;;;;;;0.00;0.00;;;;;62.60;32.49;101820.94;6396618;22;45280;-94
2022/05/21 13:09:30;;;;;;;;;0.00;0.00;;;;;64.03;31.48;101811.06;6394210;22;44620;-94
2022/05/21 13:11:56;;;;;;;;;0.33;0.33;;;;;64.04;29.25;101826.19;6368004;22;46124;-93
2022/05/21 13:14:29;;;;;;;;;0.00;0.00;;;;;60.98;28.97;101807.31;6392929;22;45188;-93
2022/05/21 13:16:58;;;;;;;;;1.00;1.00;;;;;57.59;30.20;101808.06;6359069;22;44746;-94
2022/05/21 13:19:36;;;;;;;;;0.33;0.33;;;;;54.10;30.41;101800.41;6390393;22;44843;-95
2022/05/21 13:22:25;;;;;;;;;1.00;1.00;;;;;50.71;32.92;101793.81;6362049;22;46113;-94
2022/05/21 13:24:56;;;;;;;;;1.00;1.00;;;;;48.28;33.66;101794.28;6390036;22;44649;-93
2022/05/21 13:27:24;;;;;;;;;0.00;0.00;;;;;47.70;36.16;101774.97;6418738;22;44857;-92
2022/05/21 13:29:51;;;;;;;;;0.00;0.00;;;;;50.53;35.82;101766.06;6397267;22;45001;-95
2022/05/21 13:32:31;;;;;;;;;1.67;0.00;;;;;53.84;34.12;101771.81;6362357;22;47042;-93
2022/05/21 13:35:02;;;;;;;;;2.00;0.33;;;;;56.71;33.44;101780.91;6386751;22;45373;-91
2022/05/21 13:42:45;;;;;;;;;0.00;0.00;;;;;61.30;31.44;101777.66;6383091;22;45091;-96
2022/05/21 13:45:17;;;;;;;;;0.00;0.00;;;;;61.45;30.97;101779.06;6381221;22;45279;-95
2022/05/21 13:47:51;;;;;;;;;2.00;1.00;;;;;60.42;30.98;101774.50;6412316;22;45252;-94
2022/05/21 13:50:24;;;;;;;;;0.33;0.00;;;;;60.52;30.20;101770.22;6397159;22;45229;-93
2022/05/21 13:52:59;;;;;;;;;0.00;0.00;;;;;60.78;29.99;101765.13;6378705;22;46466;-94
2022/05/21 13:55:25;;;;;;;;;1.67;1.00;;;;;61.15;30.17;101761.16;6387788;22;44805;-93
2022/05/21 13:58:11;;;;;;;;;1.00;0.00;;;;;61.19;30.45;101753.00;6393358;22;44784;-93
2022/05/21 14:05:54;;;;;;;;;1.00;1.00;;;;;58.61;30.74;101735.97;6383490;22;44964;-94
2022/05/21 14:13:30;;;;;;;;;0.00;0.00;;;;;60.33;29.42;101739.13;6391482;22;45286;-94
2022/05/21 14:18:56;;;;;;;;;0.33;0.33;;;;;59.94;29.38;101729.06;6417672;22;44802;-94
2022/05/21 14:21:27;;;;;;;;;0.33;0.33;;;;;60.28;28.91;101733.31;6388598;22;45268;-94
2022/05/21 14:24:18;;;;;;;;;1.00;0.67;;;;;60.37;29.32;101720.53;6387663;22;47922;-94
2022/05/21 14:27:18;;;;;;;;;0.00;0.00;;;;;60.87;29.82;101720.25;6406587;22;44796;-94
2022/05/21 14:29:57;;;;;;;;;1.00;0.00;;;;;61.09;28.92;101717.63;6261772;22;45420;-94
2022/05/21 14:32:33;;;;;;;;;0.00;0.00;;;;;59.71;29.32;101713.75;6264330;22;44900;-93
2022/05/21 14:35:23;;;;;;;;;1.67;0.67;;;;;56.50;29.81;101703.97;6289391;22;45367;-93
2022/05/21 14:38:02;;;;;;;;;3.67;3.67;;;;;55.94;31.33;101680.78;6266765;22;44619;-93
2022/05/21 14:40:45;;;;;;;;;3.00;3.00;;;;;56.59;31.61;101682.09;6259898;22;44972;-93
2022/05/21 14:43:22;;;;;;;;;0.00;0.00;;;;;57.46;30.97;101684.84;6235057;22;45285;-92
2022/05/21 14:45:48;;;;;;;;;2.33;1.67;;;;;57.98;31.00;101674.56;6267739;22;47138;-91
2022/05/21 14:48:13;;;;;;;;;3.33;3.33;;;;;57.95;30.05;101672.19;6267681;22;45151;-91
2022/05/21 14:53:34;;;;;;;;;3.67;2.00;;;;;53.69;30.42;101667.19;6270218;22;44780;-94
2022/05/21 14:56:03;;;;;;;;;0.33;0.33;;;;;51.16;31.83;101666.84;6295706;22;45274;-92
2022/05/21 14:58:28;;;;;;;;;0.00;0.00;;;;;48.89;32.54;101670.25;6238942;22;45597;-92
2022/05/21 15:00:54;;;;;;;;;1.67;0.67;;;;;46.73;33.66;101654.63;6265510;22;44652;-93
2022/05/21 15:03:20;;;;;;;;;2.00;1.00;;;;;44.93;33.65;101652.47;6289889;22;44902;-93
2022/05/21 15:05:49;;;;;;;;;3.00;2.00;;;;;43.28;34.65;101649.56;6304544;22;45896;-92
2022/05/21 15:08:21;;;;;;;;;0.00;0.00;;;;;41.84;35.26;101658.69;6357379;22;45642;-92
2022/05/21 15:10:48;;;;;;;;;4.00;4.00;;;;;40.59;36.79;101673.88;6383679;22;45824;-92
2022/05/21 15:13:14;;;;;;;;;1.00;1.00;;;;;39.49;38.05;101662.66;6364450;22;45528;-92
2022/05/21 15:18:15;;;;;;;;;1.00;1.00;;;;;37.64;40.34;101646.09;6389912;22;44911;-92
2022/05/21 15:20:41;;;;;;;;;2.00;2.00;;;;;36.87;42.61;101629.16;6366338;22;44737;-91
2022/05/21 15:23:08;;;;;;;;;3.67;3.67;;;;;36.26;43.44;101613.09;6395808;22;45387;-93
2022/05/21 15:25:38;;;;;;;;;3.33;1.33;;;;;35.67;44.60;101606.81;6342762;22;46493;-93
2022/05/21 15:35:51;;;;;;;;;0.33;0.33;;;;;33.72;46.61;101591.50;6425376;22;46286;-94
2022/05/21 15:38:17;;;;;;;;;1.00;1.00;;;;;33.29;47.28;101590.41;6373449;22;44974;-92
2022/05/21 15:40:43;;;;;;;;;1.00;1.00;;;;;32.88;48.40;101577.38;6392419;22;45186;-92
2022/05/21 15:43:15;;;;;;;;;6.00;6.00;;;;;32.58;50.24;101566.63;6421137;22;45209;-94
2022/05/21 15:45:40;;;;;;;;;3.00;3.00;;;;;32.26;51.28;101583.09;6391042;22;46250;-92
2022/05/21 15:48:06;;;;;;;;;3.33;1.67;;;;;31.91;50.39;101578.75;6392562;22;45375;-92
2022/05/21 15:50:32;;;;;;;;;0.33;0.33;;;;;31.62;51.05;101583.28;6355663;22;44817;-94
2022/05/21 15:55:35;;;;;;;;;0.33;0.33;;;;;30.92;52.42;101546.38;6365752;22;45198;-93
2022/05/21 15:58:02;;;;;;;;;1.00;1.00;;;;;30.78;53.42;101541.31;6340253;22;45124;-93
2022/05/21 16:00:33;;;;;;;;;5.00;5.00;;;;;30.66;53.14;101540.75;6362755;22;44832;-93
2022/05/21 16:02:58;;;;;;;;;1.33;1.33;;;;;30.55;52.83;101556.38;6381081;22;45386;-93
2022/05/21 16:05:27;;;;;;;;;2.00;2.00;;;;;30.44;54.05;101537.69;6390340;22;45175;-92
2022/05/21 16:07:54;;;;;;;;;2.00;2.00;;;;;30.22;53.94;101513.88;6423580;22;44936;-92
2022/05/21 16:10:20;;;;;;;;;4.00;4.00;;;;;30.18;54.94;101513.03;6399369;22;44630;-93
2022/05/21 16:33:28;;;;;;;;;1.33;1.33;;;;;29.28;57.73;101460.13;6350666;22;45335;-95
2022/05/21 16:35:54;;;;;;;;;1.00;0.00;;;;;29.31;58.14;101464.59;6319456;22;48036;-95
2022/05/21 16:38:20;;;;;;;;;0.00;0.00;;;;;29.34;57.97;101473.53;6318825;22;46053;-94
2022/05/21 16:40:46;;;;;;;;;1.00;1.00;;;;;29.34;58.89;101459.09;6344082;22;45543;-93
2022/05/21 16:43:12;;;;;;;;;6.00;6.00;;;;;29.31;59.46;101446.56;6348026;22;45273;-94
2022/05/21 16:45:44;;;;;;;;;1.33;1.33;;;;;29.21;59.86;101423.34;6322255;22;47205;-93
2022/05/21 16:48:14;;;;;;;;;0.33;0.33;;;;;29.18;60.53;101410.81;6311405;22;45512;-95
2022/05/21 16:50:40;;;;;;;;;2.33;2.00;;;;;29.10;60.90;101410.06;6358493;22;45162;-94
2022/05/21 16:53:06;;;;;;;;;3.00;1.67;;;;;29.07;60.55;101420.94;6396762;22;45268;-92
2022/05/21 16:55:32;;;;;;;;;2.00;2.00;;;;;28.90;60.76;101397.88;6378668;22;45358;-93
2022/05/21 16:57:57;;;;;;;;;4.00;2.33;;;;;28.83;61.48;101386.34;6381465;22;45256;-93
2022/05/21 17:00:23;;;;;;;;;1.67;1.00;;;;;28.65;62.01;101364.19;6378354;22;45319;-94
2022/05/21 17:02:48;;;;;;;;;5.00;3.67;;;;;28.60;61.91;101371.50;6369813;22;45524;-94
2022/05/21 17:05:14;;;;;;;;;2.33;2.33;;;;;28.53;62.04;101378.81;6378916;22;46616;-94
2022/05/21 17:07:41;;;;;;;;;3.33;2.67;;;;;28.39;62.17;101367.41;6341691;22;46592;-94
2022/05/21 17:10:09;;;;;;;;;2.33;1.33;;;;;28.13;62.40;101340.00;6395718;22;44698;-94
2022/05/21 17:12:35;;;;;;;;;4.00;2.00;;;;;28.06;62.62;101349.13;6396065;22;45271;-93
2022/05/21 17:15:02;;;;;;;;;2.67;2.67;;;;;28.02;63.27;101344.69;6388214;22;45209;-94
2022/05/21 17:17:27;;;;;;;;;2.67;2.67;;;;;28.03;63.46;101341.09;6383010;22;45193;-94
2022/05/21 17:19:53;;;;;;;;;1.00;1.00;;;;;27.94;63.37;101332.25;6357262;22;45256;-93
2022/05/21 17:22:21;;;;;;;;;2.00;2.00;;;;;27.87;63.80;101320.69;6383373;22;45475;-93
2022/05/21 17:24:47;;;;;;;;;1.67;1.67;;;;;27.93;64.14;101326.91;6384083;22;47285;-93
2022/05/21 17:32:50;;;;;;;;;0.00;0.00;;;;;27.85;65.38;101300.97;6384491;22;44683;-94
2022/05/21 17:35:16;;;;;;;;;2.00;2.00;;;;;27.77;66.03;101294.78;6382305;22;45436;-90
2022/05/21 17:37:42;;;;;;;;;3.67;2.00;;;;;27.72;66.34;101286.78;6382612;22;45177;-94
2022/05/21 17:40:09;;;;;;;;;1.33;1.00;;;;;27.64;66.24;101276.13;6378562;22;45256;-92
2022/05/21 17:42:35;;;;;;;;;1.00;1.00;;;;;27.47;66.75;101256.69;6379820;22;45431;-91
2022/05/21 17:45:00;;;;;;;;;1.00;1.00;;;;;27.45;66.72;101273.75;6382468;22;46892;-95
2022/05/21 17:47:26;;;;;;;;;1.00;1.00;;;;;27.33;66.48;101273.97;6384102;22;44652;-93
2022/05/21 17:49:54;;;;;;;;;2.67;1.00;;;;;27.19;66.48;101269.69;6384339;22;45256;-93
2022/05/21 17:52:20;;;;;;;;;3.00;2.00;;;;;27.06;67.32;101254.63;6380969;22;45515;-94
2022/05/21 17:54:48;;;;;;;;;1.67;1.67;;;;;26.95;68.01;101244.03;6365215;22;46849;-92
2022/05/21 17:57:14;;;;;;;;;3.33;1.33;;;;;26.81;68.40;101223.59;6371010;22;45752;-93
2022/05/21 17:59:39;;;;;;;;;3.67;2.33;;;;;26.66;68.46;101208.56;6395200;22;44773;-94
2022/05/21 18:02:05;;;;;;;;;2.33;2.33;;;;;26.51;69.14;101186.34;6386629;22;45575;-93
2022/05/21 18:04:32;;;;;;;;;1.67;1.67;;;;;26.38;69.48;101187.41;6385329;22;45158;-93
2022/05/21 18:06:58;;;;;;;;;2.00;2.00;;;;;26.27;69.46;101198.31;6389378;22;44705;-93
2022/05/21 18:09:24;;;;;;;;;1.00;0.67;;;;;26.18;69.55;101193.94;6383199;22;45205;-94
2022/05/21 18:11:50;;;;;;;;;3.33;3.33;;;;;26.10;70.24;101191.38;6382761;22;45282;-94
2022/05/21 18:14:15;;;;;;;;;0.00;0.00;;;;;25.97;70.31;101174.50;6386355;22;47982;-94
2022/05/21 18:19:25;;;;;;;;;3.00;3.00;;;;;25.78;71.25;101142.44;6380417;22;45375;-92
2022/05/21 18:21:54;;;;;;;;;3.67;3.00;;;;;25.69;71.92;101132.69;6391350;22;45399;-91
2022/05/21 18:24:21;;;;;;;;;1.00;1.00;;;;;25.59;72.44;101112.19;6391153;22;45611;-92
2022/05/21 18:26:48;;;;;;;;;5.00;2.00;;;;;25.51;72.47;101105.09;6412096;22;45754;-93
2022/05/21 18:29:13;;;;;;;;;1.33;1.33;;;;;25.36;73.07;101078.44;6387863;22;45193;-92
2022/05/21 18:31:39;;;;;;;;;2.33;2.00;;;;;25.35;72.95;101092.75;6377681;22;45446;-93
2022/05/21 18:34:05;;;;;;;;;2.00;1.00;;;;;25.30;73.54;101092.81;6372020;22;45633;-93
2022/05/21 18:36:33;;;;;;;;;2.00;2.00;;;;;25.25;73.28;101091.97;6396083;22;45698;-93
2022/05/21 18:38:59;;;;;;;;;4.67;2.67;;;;;25.17;73.78;101082.19;6369803;22;45428;-92
2022/05/21 18:41:26;;;;;;;;;10.00;6.00;;;;;25.09;73.95;101071.53;6370004;22;45244;-92
2022/05/21 18:43:53;;;;;;;;;5.33;5.00;;;;;25.03;74.42;101050.09;6390381;22;47635;-94
2022/05/21 18:46:24;;;;;;;;;4.00;4.00;;;;;25.00;74.76;101056.41;6393873;22;44587;-92
2022/05/21 18:48:51;;;;;;;;;7.33;6.67;;;;;24.89;75.28;101032.31;6391537;22;44752;-93
2022/05/21 18:51:17;;;;;;;;;1.00;0.33;;;;;24.87;75.66;101031.44;6393357;22;44882;-93
2022/05/21 18:53:44;;;;;;;;;4.33;4.33;;;;;24.85;75.69;101032.34;6411065;22;47335;-92
2022/05/21 18:56:09;;;;;;;;;4.67;4.67;;;;;24.68;76.10;100998.53;6367082;22;45424;-92
2022/05/21 18:58:37;;;;;;;;;6.33;5.67;;;;;24.74;76.49;100986.88;6367211;22;45380;-92
2022/05/21 19:01:04;;;;;;;;;12.00;11.33;;;;;24.65;77.17;100974.41;6370143;22;45335;-93
2022/05/21 19:03:30;;;;;;;;;2.00;2.00;;;;;24.62;77.55;100935.09;6370283;22;46316;-91
2022/05/21 19:05:55;;;;;;;;;2.67;2.67;;;;;24.55;76.90;100969.16;6375244;22;45427;-94
2022/05/21 19:08:21;;;;;;;;;6.00;1.00;;;;;24.50;78.05;100956.69;6367354;22;45177;-94
2022/05/21 19:10:51;;;;;;;;;3.67;3.00;;;;;24.42;77.86;100951.38;6367817;22;45433;-94
2022/05/21 19:13:20;;;;;;;;;3.00;2.33;;;;;24.36;77.22;100976.47;6367725;22;45406;-93
2022/05/21 19:15:50;;;;;;;;;8.33;5.33;;;;;24.32;78.11;100948.81;6367804;22;45772;-94
2022/05/21 19:21:02;;;;;;;;;7.33;5.00;;;;;24.20;79.42;100928.28;6376447;22;45409;-93
2022/05/21 19:23:28;;;;;;;;;6.00;5.33;;;;;24.14;79.51;100922.09;6377328;22;47050;-94
2022/05/21 19:25:53;;;;;;;;;8.33;7.00;;;;;24.07;79.55;100905.19;6377556;22;45247;-92
2022/05/21 19:28:20;;;;;;;;;2.00;2.00;;;;;24.06;80.14;100906.09;6372231;22;45454;-91
2022/05/21 19:30:46;;;;;;;;;4.00;4.00;;;;;24.01;79.62;100935.63;6367090;22;45195;-94